sensor_id;sensor_type;location;lat;lon;timestamp;pressure;altitude;pressure_sealevel;temperature;humidity
52105;BME280;38103;42.776;23.112;2023-02-18T00:01:14;94652.00;;;3.44;55.96
52105;BME280;38103;42.776;23.112;2023-02-18T00:03:40;94678.78;;;3.78;55.80
52105;BME280;38103;42.776;23.112;2023-02-18T00:06:27;94680.53;;;3.86;55.37
52105;BME280;38103;42.776;23.112;2023-02-18T00:08:53;94640.97;;;3.57;55.03
52105;BME280;38103;42.776;23.112;2023-02-18T00:11:20;94677.03;;;3.94;55.08
52105;BME280;38103;42.776;23.112;2023-02-18T00:13:50;94670.56;;;4.05;54.42
52105;BME280;38103;42.776;23.112;2023-02-18T00:16:15;94664.34;;;3.82;55.41
52105;BME280;38103;42.776;23.112;2023-02-18T00:18:41;94646.88;;;3.51;56.50
52105;BME280;38103;42.776;23.112;2023-02-18T00:21:07;94653.00;;;3.66;56.74
52105;BME280;38103;42.776;23.112;2023-02-18T00:23:33;94650.97;;;3.53;56.91
52105;BME280;38103;42.776;23.112;2023-02-18T00:26:12;94648.22;;;3.46;57.28
52105;BME280;38103;42.776;23.112;2023-02-18T00:28:38;94586.31;;;3.15;56.88
52105;BME280;38103;42.776;23.112;2023-02-18T00:31:08;94597.69;;;3.31;56.68
52105;BME280;38103;42.776;23.112;2023-02-18T00:33:33;94631.16;;;3.59;56.52
52105;BME280;38103;42.776;23.112;2023-02-18T00:36:03;94589.78;;;3.39;56.45
52105;BME280;38103;42.776;23.112;2023-02-18T00:38:29;94637.59;;;3.72;56.18
52105;BME280;38103;42.776;23.112;2023-02-18T00:40:55;94640.16;;;3.80;55.96
52105;BME280;38103;42.776;23.112;2023-02-18T00:43:20;94637.50;;;3.88;55.69
52105;BME280;38103;42.776;23.112;2023-02-18T00:45:46;94631.97;;;3.83;55.55
52105;BME280;38103;42.776;23.112;2023-02-18T00:48:11;94619.50;;;3.70;56.15
52105;BME280;38103;42.776;23.112;2023-02-18T00:50:36;94629.34;;;3.60;56.38
52105;BME280;38103;42.776;23.112;2023-02-18T00:53:02;94627.84;;;3.65;56.44
52105;BME280;38103;42.776;23.112;2023-02-18T00:55:27;94626.94;;;3.58;56.80
52105;BME280;38103;42.776;23.112;2023-02-18T00:57:53;94621.34;;;3.61;56.76
52105;BME280;38103;42.776;23.112;2023-02-18T01:00:18;94637.97;;;3.68;56.38
52105;BME280;38103;42.776;23.112;2023-02-18T01:02:44;94612.59;;;3.45;56.91
52105;BME280;38103;42.776;23.112;2023-02-18T01:05:09;94627.91;;;3.57;56.82
52105;BME280;38103;42.776;23.112;2023-02-18T01:07:34;94623.19;;;3.52;57.28
52105;BME280;38103;42.776;23.112;2023-02-18T01:10:00;94634.09;;;3.56;57.00
52105;BME280;38103;42.776;23.112;2023-02-18T01:12:25;94619.22;;;3.33;57.61
52105;BME280;38103;42.776;23.112;2023-02-18T01:14:50;94629.44;;;3.43;57.64
52105;BME280;38103;42.776;23.112;2023-02-18T01:17:16;94625.63;;;3.54;57.35
52105;BME280;38103;42.776;23.112;2023-02-18T01:19:41;94619.72;;;3.60;57.15
52105;BME280;38103;42.776;23.112;2023-02-18T01:22:07;94630.19;;;3.60;57.12
52105;BME280;38103;42.776;23.112;2023-02-18T01:24:32;94626.94;;;3.58;56.84
52105;BME280;38103;42.776;23.112;2023-02-18T01:26:58;94630.19;;;3.60;56.91
52105;BME280;38103;42.776;23.112;2023-02-18T01:29:23;94617.16;;;3.52;57.57
52105;BME280;38103;42.776;23.112;2023-02-18T01:31:48;94618.78;;;3.53;57.32
52105;BME280;38103;42.776;23.112;2023-02-18T01:34:14;94622.72;;;3.49;57.41
52105;BME280;38103;42.776;23.112;2023-02-18T01:36:39;94624.75;;;3.38;57.75
52105;BME280;38103;42.776;23.112;2023-02-18T01:39:05;94628.19;;;3.39;57.80
52105;BME280;38103;42.776;23.112;2023-02-18T01:41:31;94634.91;;;3.33;58.05
52105;BME280;38103;42.776;23.112;2023-02-18T01:44:13;94641.44;;;3.37;57.96
52105;BME280;38103;42.776;23.112;2023-02-18T01:46:39;94639.41;;;3.16;58.91
52105;BME280;38103;42.776;23.112;2023-02-18T01:49:05;94640.78;;;3.03;59.31
52105;BME280;38103;42.776;23.112;2023-02-18T01:51:37;94643.91;;;2.98;59.39
52105;BME280;38103;42.776;23.112;2023-02-18T01:54:08;94650.94;;;2.89;59.50
52105;BME280;38103;42.776;23.112;2023-02-18T01:56:48;94648.53;;;2.71;60.43
52105;BME280;38103;42.776;23.112;2023-02-18T01:59:18;94647.91;;;2.61;60.74
52105;BME280;38103;42.776;23.112;2023-02-18T02:01:45;94646.94;;;2.62;60.89
52105;BME280;38103;42.776;23.112;2023-02-18T02:04:12;94649.84;;;2.75;60.24
52105;BME280;38103;42.776;23.112;2023-02-18T02:06:37;94627.81;;;2.78;60.24
52105;BME280;38103;42.776;23.112;2023-02-18T02:09:05;94612.81;;;2.72;59.74
52105;BME280;38103;42.776;23.112;2023-02-18T02:14:21;94627.59;;;2.88;59.69
52105;BME280;38103;42.776;23.112;2023-02-18T02:22:23;94644.22;;;2.95;59.46
52105;BME280;38103;42.776;23.112;2023-02-18T02:35:29;94633.38;;;3.07;58.73
52105;BME280;38103;42.776;23.112;2023-02-18T02:38:12;94580.31;;;2.74;58.74
52105;BME280;38103;42.776;23.112;2023-02-18T02:46:22;94629.50;;;3.03;59.24
52105;BME280;38103;42.776;23.112;2023-02-18T02:49:11;94601.91;;;2.68;59.45
52105;BME280;38103;42.776;23.112;2023-02-18T02:51:45;94634.00;;;2.85;59.77
52105;BME280;38103;42.776;23.112;2023-02-18T02:54:22;94642.34;;;2.81;59.97
52105;BME280;38103;42.776;23.112;2023-02-18T02:56:48;94644.44;;;2.85;59.77
52105;BME280;38103;42.776;23.112;2023-02-18T02:59:20;94640.69;;;2.79;59.95
52105;BME280;38103;42.776;23.112;2023-02-18T03:04:22;94636.75;;;2.84;59.68
52105;BME280;38103;42.776;23.112;2023-02-18T03:12:28;94585.34;;;2.44;59.99
52105;BME280;38103;42.776;23.112;2023-02-18T03:17:33;94641.03;;;2.76;60.21
52105;BME280;38103;42.776;23.112;2023-02-18T03:20:27;94647.88;;;2.77;60.54
52105;BME280;38103;42.776;23.112;2023-02-18T03:22:56;94658.94;;;2.96;59.84
52105;BME280;38103;42.776;23.112;2023-02-18T03:25:25;94664.78;;;2.98;59.19
52105;BME280;38103;42.776;23.112;2023-02-18T03:27:54;94669.31;;;3.13;58.81
52105;BME280;38103;42.776;23.112;2023-02-18T03:30:27;94625.31;;;2.93;58.42
52105;BME280;38103;42.776;23.112;2023-02-18T03:32:59;94680.00;;;3.35;57.78
52105;BME280;38103;42.776;23.112;2023-02-18T03:35:27;94674.41;;;3.38;57.56
52105;BME280;38103;42.776;23.112;2023-02-18T03:38:23;94679.00;;;3.36;58.13
52105;BME280;38103;42.776;23.112;2023-02-18T03:40:50;94670.56;;;3.26;58.36
52105;BME280;38103;42.776;23.112;2023-02-18T03:43:15;94680.66;;;3.29;58.20
52105;BME280;38103;42.776;23.112;2023-02-18T03:45:41;94680.00;;;3.35;58.01
52105;BME280;38103;42.776;23.112;2023-02-18T03:48:06;94684.53;;;3.41;58.11
52105;BME280;38103;42.776;23.112;2023-02-18T03:50:32;94687.78;;;3.43;58.06
52105;BME280;38103;42.776;23.112;2023-02-18T03:52:57;94682.63;;;3.35;58.29
52105;BME280;38103;42.776;23.112;2023-02-18T03:55:23;94675.09;;;3.32;58.76
52105;BME280;38103;42.776;23.112;2023-02-18T03:57:48;94677.09;;;3.30;58.60
52105;BME280;38103;42.776;23.112;2023-02-18T04:00:14;94677.84;;;3.39;58.40
52105;BME280;38103;42.776;23.112;2023-02-18T04:02:40;94674.72;;;3.43;57.91
52105;BME280;38103;42.776;23.112;2023-02-18T04:05:06;94675.34;;;3.45;58.04
52105;BME280;38103;42.776;23.112;2023-02-18T04:07:31;94675.34;;;3.45;57.79
52105;BME280;38103;42.776;23.112;2023-02-18T04:09:57;94677.31;;;3.43;58.07
52105;BME280;38103;42.776;23.112;2023-02-18T04:12:22;94672.53;;;3.23;58.66
52105;BME280;38103;42.776;23.112;2023-02-18T04:14:47;94678.69;;;3.31;58.42
52105;BME280;38103;42.776;23.112;2023-02-18T04:17:13;94672.41;;;3.17;58.94
52105;BME280;38103;42.776;23.112;2023-02-18T04:19:38;94666.34;;;3.16;58.88
52105;BME280;38103;42.776;23.112;2023-02-18T04:22:03;94649.03;;;3.15;59.12
52105;BME280;38103;42.776;23.112;2023-02-18T04:24:29;94652.38;;;3.00;59.68
52105;BME280;38103;42.776;23.112;2023-02-18T04:26:54;94644.88;;;2.97;59.79
52105;BME280;38103;42.776;23.112;2023-02-18T04:29:20;94643.59;;;2.93;59.86
52105;BME280;38103;42.776;23.112;2023-02-18T04:31:45;94654.00;;;3.01;59.78
52105;BME280;38103;42.776;23.112;2023-02-18T04:34:10;94655.19;;;3.22;59.38
52105;BME280;38103;42.776;23.112;2023-02-18T04:36:36;94661.41;;;3.30;58.39
52105;BME280;38103;42.776;23.112;2023-02-18T04:39:01;94663.94;;;3.38;58.06
52105;BME280;38103;42.776;23.112;2023-02-18T04:41:26;94663.28;;;3.44;58.02
52105;BME280;38103;42.776;23.112;2023-02-18T04:43:52;94659.31;;;3.49;57.73
52105;BME280;38103;42.776;23.112;2023-02-18T04:46:17;94665.84;;;3.53;57.50
52105;BME280;38103;42.776;23.112;2023-02-18T04:48:42;94659.63;;;3.54;57.61
52105;BME280;38103;42.776;23.112;2023-02-18T04:51:08;94662.56;;;3.51;57.55
52105;BME280;38103;42.776;23.112;2023-02-18T04:53:33;94675.50;;;3.52;57.68
52105;BME280;38103;42.776;23.112;2023-02-18T04:55:59;94686.22;;;3.26;58.64
52105;BME280;38103;42.776;23.112;2023-02-18T04:58:24;94678.16;;;3.04;59.35
52105;BME280;38103;42.776;23.112;2023-02-18T05:00:50;94680.19;;;2.85;60.63
52105;BME280;38103;42.776;23.112;2023-02-18T05:03:16;94681.84;;;2.77;61.05
52105;BME280;38103;42.776;23.112;2023-02-18T05:05:41;94672.69;;;2.73;61.40
52105;BME280;38103;42.776;23.112;2023-02-18T05:08:07;94649.25;;;2.56;61.62
52105;BME280;38103;42.776;23.112;2023-02-18T05:10:33;94663.06;;;2.74;61.39
52105;BME280;38103;42.776;23.112;2023-02-18T05:12:59;94658.25;;;2.94;60.92
52105;BME280;38103;42.776;23.112;2023-02-18T05:15:24;94660.53;;;3.06;60.46
52105;BME280;38103;42.776;23.112;2023-02-18T05:17:50;94650.34;;;3.19;60.00
52105;BME280;38103;42.776;23.112;2023-02-18T05:20:15;94635.66;;;3.10;59.62
52105;BME280;38103;42.776;23.112;2023-02-18T05:22:41;94656.84;;;3.23;60.09
52105;BME280;38103;42.776;23.112;2023-02-18T05:25:07;94638.28;;;3.10;59.99
52105;BME280;38103;42.776;23.112;2023-02-18T05:27:32;94665.16;;;3.27;60.21
52105;BME280;38103;42.776;23.112;2023-02-18T05:29:58;94673.13;;;3.34;59.92
52105;BME280;38103;42.776;23.112;2023-02-18T05:32:23;94653.00;;;3.11;60.01
52105;BME280;38103;42.776;23.112;2023-02-18T05:34:48;94631.53;;;2.84;60.50
52105;BME280;38103;42.776;23.112;2023-02-18T05:37:14;94673.81;;;2.87;61.39
52105;BME280;38103;42.776;23.112;2023-02-18T05:39:40;94686.06;;;2.78;61.58
52105;BME280;38103;42.776;23.112;2023-02-18T05:42:07;94674.75;;;2.95;61.35
52105;BME280;38103;42.776;23.112;2023-02-18T05:44:32;94682.53;;;3.11;60.57
52105;BME280;38103;42.776;23.112;2023-02-18T05:47:01;94684.13;;;3.21;60.31
52105;BME280;38103;42.776;23.112;2023-02-18T05:49:27;94684.94;;;3.30;59.76
52105;BME280;38103;42.776;23.112;2023-02-18T05:51:53;94690.78;;;3.32;59.92
52105;BME280;38103;42.776;23.112;2023-02-18T05:54:19;94689.63;;;3.34;59.73
52105;BME280;38103;42.776;23.112;2023-02-18T05:56:44;94671.84;;;3.30;59.54
52105;BME280;38103;42.776;23.112;2023-02-18T05:59:09;94681.72;;;3.43;59.38
52105;BME280;38103;42.776;23.112;2023-02-18T06:01:35;94672.41;;;3.49;59.28
52105;BME280;38103;42.776;23.112;2023-02-18T06:04:00;94672.53;;;3.55;59.04
52105;BME280;38103;42.776;23.112;2023-02-18T06:06:26;94670.97;;;3.69;58.70
52105;BME280;38103;42.776;23.112;2023-02-18T06:08:51;94667.00;;;3.74;58.13
52105;BME280;38103;42.776;23.112;2023-02-18T06:11:16;94676.44;;;3.83;57.75
52105;BME280;38103;42.776;23.112;2023-02-18T06:13:42;94660.41;;;3.86;58.20
52105;BME280;38103;42.776;23.112;2023-02-18T06:16:07;94669.13;;;4.02;58.10
52105;BME280;38103;42.776;23.112;2023-02-18T06:18:32;94677.25;;;4.07;57.71
52105;BME280;38103;42.776;23.112;2023-02-18T06:20:58;94670.06;;;4.09;57.69
52105;BME280;38103;42.776;23.112;2023-02-18T06:23:23;94667.25;;;4.11;57.55
52105;BME280;38103;42.776;23.112;2023-02-18T06:25:49;94663.28;;;4.15;57.47
52105;BME280;38103;42.776;23.112;2023-02-18T06:28:15;94668.63;;;4.22;56.70
52105;BME280;38103;42.776;23.112;2023-02-18T06:30:41;94672.81;;;4.31;56.25
52105;BME280;38103;42.776;23.112;2023-02-18T06:33:06;94665.59;;;4.33;56.14
52105;BME280;38103;42.776;23.112;2023-02-18T06:35:32;94685.53;;;4.34;56.11
52105;BME280;38103;42.776;23.112;2023-02-18T06:37:58;94676.91;;;4.49;55.50
52105;BME280;38103;42.776;23.112;2023-02-18T06:40:23;94676.00;;;4.57;55.41
52105;BME280;38103;42.776;23.112;2023-02-18T06:42:48;94669.94;;;4.56;55.49
52105;BME280;38103;42.776;23.112;2023-02-18T06:45:14;94669.78;;;4.58;55.69
52105;BME280;38103;42.776;23.112;2023-02-18T06:47:39;94679.53;;;4.49;55.83
52105;BME280;38103;42.776;23.112;2023-02-18T06:50:05;94682.06;;;4.57;56.09
52105;BME280;38103;42.776;23.112;2023-02-18T06:52:31;94646.84;;;4.45;55.86
52105;BME280;38103;42.776;23.112;2023-02-18T06:54:58;94677.19;;;4.69;55.71
52105;BME280;38103;42.776;23.112;2023-02-18T06:57:24;94657.88;;;4.55;55.43
52105;BME280;38103;42.776;23.112;2023-02-18T06:59:49;94679.53;;;4.79;54.98
52105;BME280;38103;42.776;23.112;2023-02-18T07:02:14;94667.19;;;4.88;54.65
52105;BME280;38103;42.776;23.112;2023-02-18T07:04:40;94653.09;;;4.89;54.59
52105;BME280;38103;42.776;23.112;2023-02-18T07:07:05;94655.72;;;5.05;53.55
52105;BME280;38103;42.776;23.112;2023-02-18T07:09:31;94631.13;;;5.06;53.04
52105;BME280;38103;42.776;23.112;2023-02-18T07:11:56;94633.47;;;5.00;52.17
52105;BME280;38103;42.776;23.112;2023-02-18T07:14:22;94644.84;;;5.08;51.93
52105;BME280;38103;42.776;23.112;2023-02-18T07:16:48;94662.38;;;5.22;52.08
52105;BME280;38103;42.776;23.112;2023-02-18T07:19:13;94669.75;;;5.34;52.37
52105;BME280;38103;42.776;23.112;2023-02-18T07:21:39;94670.53;;;5.50;52.49
52105;BME280;38103;42.776;23.112;2023-02-18T07:24:05;94666.84;;;5.59;51.78
52105;BME280;38103;42.776;23.112;2023-02-18T07:26:30;94667.63;;;5.59;52.64
52105;BME280;38103;42.776;23.112;2023-02-18T07:28:55;94662.47;;;5.66;51.31
52105;BME280;38103;42.776;23.112;2023-02-18T07:31:21;94647.59;;;5.74;50.79
52105;BME280;38103;42.776;23.112;2023-02-18T07:33:46;94675.47;;;5.97;50.59
52105;BME280;38103;42.776;23.112;2023-02-18T07:36:11;94671.38;;;6.09;50.29
52105;BME280;38103;42.776;23.112;2023-02-18T07:38:37;94687.25;;;6.23;50.03
52105;BME280;38103;42.776;23.112;2023-02-18T07:41:02;94641.03;;;6.07;50.31
52105;BME280;38103;42.776;23.112;2023-02-18T07:43:28;94693.75;;;6.49;49.57
52105;BME280;38103;42.776;23.112;2023-02-18T07:45:53;94658.69;;;6.42;49.22
52105;BME280;38103;42.776;23.112;2023-02-18T07:48:19;94696.94;;;6.73;48.51
52105;BME280;38103;42.776;23.112;2023-02-18T07:50:45;94660.53;;;6.70;48.79
52105;BME280;38103;42.776;23.112;2023-02-18T07:53:12;94691.84;;;7.00;48.25
52105;BME280;38103;42.776;23.112;2023-02-18T07:55:38;94690.31;;;7.13;48.64
52105;BME280;38103;42.776;23.112;2023-02-18T07:58:26;94655.06;;;7.00;47.85
52105;BME280;38103;42.776;23.112;2023-02-18T08:00:53;94692.44;;;7.38;47.05
52105;BME280;38103;42.776;23.112;2023-02-18T08:03:27;94682.56;;;7.47;46.52
52105;BME280;38103;42.776;23.112;2023-02-18T08:05:53;94674.09;;;7.52;45.75
52105;BME280;38103;42.776;23.112;2023-02-18T08:08:21;94686.06;;;7.61;45.60
52105;BME280;38103;42.776;23.112;2023-02-18T08:10:48;94681.22;;;7.65;44.92
52105;BME280;38103;42.776;23.112;2023-02-18T08:13:14;94655.66;;;7.52;44.30
52105;BME280;38103;42.776;23.112;2023-02-18T08:15:39;94664.22;;;7.67;44.61
52105;BME280;38103;42.776;23.112;2023-02-18T08:18:07;94659.78;;;7.75;44.79
52105;BME280;38103;42.776;23.112;2023-02-18T08:20:37;94636.63;;;7.49;43.99
52105;BME280;38103;42.776;23.112;2023-02-18T08:23:03;94616.75;;;7.33;44.66
52105;BME280;38103;42.776;23.112;2023-02-18T08:25:29;94638.63;;;7.47;45.33
52105;BME280;38103;42.776;23.112;2023-02-18T08:27:55;94641.09;;;7.56;45.66
52105;BME280;38103;42.776;23.112;2023-02-18T08:30:21;94656.09;;;7.62;46.35
52105;BME280;38103;42.776;23.112;2023-02-18T08:32:46;94638.50;;;7.69;46.12
52105;BME280;38103;42.776;23.112;2023-02-18T08:35:12;94644.59;;;7.77;46.22
52105;BME280;38103;42.776;23.112;2023-02-18T08:37:37;94641.38;;;7.88;46.48
52105;BME280;38103;42.776;23.112;2023-02-18T08:40:03;94646.66;;;7.95;46.49
52105;BME280;38103;42.776;23.112;2023-02-18T08:42:29;94659.63;;;8.03;46.41
52105;BME280;38103;42.776;23.112;2023-02-18T08:44:54;94650.09;;;8.09;45.11
52105;BME280;38103;42.776;23.112;2023-02-18T08:47:20;94646.88;;;8.21;45.09
52105;BME280;38103;42.776;23.112;2023-02-18T08:49:45;94650.31;;;8.28;45.07
52105;BME280;38103;42.776;23.112;2023-02-18T08:52:11;94649.91;;;8.31;45.12
52105;BME280;38103;42.776;23.112;2023-02-18T08:54:36;94652.56;;;8.45;44.08
52105;BME280;38103;42.776;23.112;2023-02-18T08:57:01;94654.16;;;8.46;43.91
52105;BME280;38103;42.776;23.112;2023-02-18T08:59:27;94649.09;;;8.51;44.09
52105;BME280;38103;42.776;23.112;2023-02-18T09:01:52;94651.75;;;8.65;44.29
52105;BME280;38103;42.776;23.112;2023-02-18T09:04:18;94642.41;;;8.82;43.66
52105;BME280;38103;42.776;23.112;2023-02-18T09:06:45;94644.81;;;9.04;43.22
52105;BME280;38103;42.776;23.112;2023-02-18T09:09:11;94633.78;;;9.21;42.50
52105;BME280;38103;42.776;23.112;2023-02-18T09:11:37;94644.66;;;9.38;41.80
52105;BME280;38103;42.776;23.112;2023-02-18T09:14:02;94629.75;;;9.58;41.06
52105;BME280;38103;42.776;23.112;2023-02-18T09:16:28;94637.69;;;9.90;41.22
52105;BME280;38103;42.776;23.112;2023-02-18T09:18:54;94626.03;;;10.05;40.59
52105;BME280;38103;42.776;23.112;2023-02-18T09:21:20;94623.19;;;10.32;39.34
52105;BME280;38103;42.776;23.112;2023-02-18T09:23:48;94635.00;;;10.55;40.03
52105;BME280;38103;42.776;23.112;2023-02-18T09:26:16;94618.84;;;10.89;39.01
52105;BME280;38103;42.776;23.112;2023-02-18T09:28:43;94617.13;;;11.33;40.01
52105;BME280;38103;42.776;23.112;2023-02-18T09:31:11;94620.75;;;11.69;38.48
52105;BME280;38103;42.776;23.112;2023-02-18T09:33:39;94607.34;;;11.95;37.47
52105;BME280;38103;42.776;23.112;2023-02-18T09:36:06;94620.09;;;12.17;36.92
52105;BME280;38103;42.776;23.112;2023-02-18T09:38:32;94625.31;;;12.48;36.38
52105;BME280;38103;42.776;23.112;2023-02-18T09:40:59;94625.91;;;12.62;35.35
52105;BME280;38103;42.776;23.112;2023-02-18T09:43:32;94578.38;;;12.48;34.50
52105;BME280;38103;42.776;23.112;2023-02-18T09:45:59;94622.44;;;12.85;34.29
52105;BME280;38103;42.776;23.112;2023-02-18T09:48:28;94613.31;;;12.81;33.37
52105;BME280;38103;42.776;23.112;2023-02-18T09:50:55;94613.44;;;12.87;34.00
52105;BME280;38103;42.776;23.112;2023-02-18T09:53:22;94576.63;;;12.78;35.00
52105;BME280;38103;42.776;23.112;2023-02-18T09:55:48;94615.59;;;13.14;34.91
52105;BME280;38103;42.776;23.112;2023-02-18T09:58:19;94614.19;;;13.23;32.34
52105;BME280;38103;42.776;23.112;2023-02-18T10:01:09;94619.03;;;13.26;33.32
52105;BME280;38103;42.776;23.112;2023-02-18T10:03:36;94619.59;;;13.28;32.40
52105;BME280;38103;42.776;23.112;2023-02-18T10:08:32;94589.06;;;13.14;31.58
52105;BME280;38103;42.776;23.112;2023-02-18T10:11:00;94621.13;;;13.24;31.83
52105;BME280;38103;42.776;23.112;2023-02-18T10:13:29;94608.88;;;13.23;32.13
52105;BME280;38103;42.776;23.112;2023-02-18T10:15:54;94609.34;;;13.20;31.68
52105;BME280;38103;42.776;23.112;2023-02-18T10:20:46;94588.41;;;12.82;31.62
52105;BME280;38103;42.776;23.112;2023-02-18T10:23:13;94612.16;;;13.01;32.16
52105;BME280;38103;42.776;23.112;2023-02-18T10:25:43;94613.28;;;13.05;31.99
52105;BME280;38103;42.776;23.112;2023-02-18T10:28:10;94610.53;;;13.00;32.46
52105;BME280;38103;42.776;23.112;2023-02-18T10:30:40;94610.00;;;13.27;32.75
52105;BME280;38103;42.776;23.112;2023-02-18T10:39:23;94603.09;;;13.68;33.59
52105;BME280;38103;42.776;23.112;2023-02-18T10:46:46;94603.31;;;13.95;33.28
52105;BME280;38103;42.776;23.112;2023-02-18T10:52:02;94583.66;;;13.96;33.44
52105;BME280;38103;42.776;23.112;2023-02-18T10:54:49;94581.41;;;13.88;32.57
52105;BME280;38103;42.776;23.112;2023-02-18T10:57:21;94585.41;;;13.73;32.98
52105;BME280;38103;42.776;23.112;2023-02-18T11:00:02;94580.25;;;13.84;33.02
52105;BME280;38103;42.776;23.112;2023-02-18T11:02:38;94549.34;;;13.78;32.60
52105;BME280;38103;42.776;23.112;2023-02-18T11:05:24;94559.78;;;13.84;34.08
52105;BME280;38103;42.776;23.112;2023-02-18T11:07:52;94569.47;;;13.73;34.30
52105;BME280;38103;42.776;23.112;2023-02-18T11:10:23;94561.66;;;13.84;34.81
52105;BME280;38103;42.776;23.112;2023-02-18T11:12:54;94571.78;;;13.70;35.35
52105;BME280;38103;42.776;23.112;2023-02-18T11:15:24;94559.38;;;13.46;35.99
52105;BME280;38103;42.776;23.112;2023-02-18T11:17:55;94555.91;;;13.58;36.03
52105;BME280;38103;42.776;23.112;2023-02-18T11:20:33;94535.97;;;13.72;36.69
52105;BME280;38103;42.776;23.112;2023-02-18T11:25:32;94483.28;;;13.69;36.23
52105;BME280;38103;42.776;23.112;2023-02-18T11:30:52;94478.94;;;13.98;36.27
52105;BME280;38103;42.776;23.112;2023-02-18T11:33:42;94515.66;;;14.18;36.72
52105;BME280;38103;42.776;23.112;2023-02-18T11:39:04;94518.38;;;14.40;37.34
52105;BME280;38103;42.776;23.112;2023-02-18T11:41:37;94498.22;;;14.45;36.39
52105;BME280;38103;42.776;23.112;2023-02-18T11:44:05;94503.41;;;14.74;33.80
52105;BME280;38103;42.776;23.112;2023-02-18T11:46:32;94489.63;;;14.60;33.31
52105;BME280;38103;42.776;23.112;2023-02-18T11:49:18;94482.66;;;14.76;35.35
52105;BME280;38103;42.776;23.112;2023-02-18T11:51:47;94472.16;;;14.87;34.53
52105;BME280;38103;42.776;23.112;2023-02-18T11:54:25;94482.78;;;15.09;34.86
52105;BME280;38103;42.776;23.112;2023-02-18T11:57:11;94476.25;;;15.22;33.97
52105;BME280;38103;42.776;23.112;2023-02-18T11:59:39;94479.03;;;15.33;34.50
52105;BME280;38103;42.776;23.112;2023-02-18T12:04:40;94462.63;;;15.46;33.73
52105;BME280;38103;42.776;23.112;2023-02-18T12:09:38;94454.06;;;15.44;33.81
52105;BME280;38103;42.776;23.112;2023-02-18T12:12:10;94455.00;;;15.27;33.96
52105;BME280;38103;42.776;23.112;2023-02-18T12:14:37;94458.16;;;15.24;33.54
52105;BME280;38103;42.776;23.112;2023-02-18T12:17:12;94458.72;;;14.99;34.98
52105;BME280;38103;42.776;23.112;2023-02-18T12:25:28;94454.34;;;14.70;35.85
52105;BME280;38103;42.776;23.112;2023-02-18T12:38:59;94430.47;;;14.52;35.75
52105;BME280;38103;42.776;23.112;2023-02-18T12:44:37;94422.38;;;14.64;36.47
52105;BME280;38103;42.776;23.112;2023-02-18T12:47:29;94429.25;;;14.60;36.45
52105;BME280;38103;42.776;23.112;2023-02-18T12:50:23;94420.66;;;14.53;35.49
52105;BME280;38103;42.776;23.112;2023-02-18T12:53:20;94424.47;;;14.62;36.34
52105;BME280;38103;42.776;23.112;2023-02-18T12:58:38;94415.94;;;14.60;35.56
52105;BME280;38103;42.776;23.112;2023-02-18T13:01:18;94423.50;;;14.69;34.89
52105;BME280;38103;42.776;23.112;2023-02-18T13:12:29;94426.69;;;14.71;34.90
52105;BME280;38103;42.776;23.112;2023-02-18T13:15:05;94430.13;;;14.66;34.87
52105;BME280;38103;42.776;23.112;2023-02-18T13:17:38;94432.81;;;14.49;34.79
52105;BME280;38103;42.776;23.112;2023-02-18T13:20:16;94435.88;;;14.35;34.91
52105;BME280;38103;42.776;23.112;2023-02-18T13:22:43;94425.31;;;14.23;35.32
52105;BME280;38103;42.776;23.112;2023-02-18T13:25:13;94423.59;;;14.34;36.06
52105;BME280;38103;42.776;23.112;2023-02-18T13:27:47;94422.13;;;14.44;35.77
52105;BME280;38103;42.776;23.112;2023-02-18T13:30:21;94432.75;;;14.44;35.77
52105;BME280;38103;42.776;23.112;2023-02-18T13:35:59;94424.25;;;14.02;35.68
52105;BME280;38103;42.776;23.112;2023-02-18T13:41:14;94424.91;;;13.74;36.23
52105;BME280;38103;42.776;23.112;2023-02-18T13:43:39;94424.19;;;13.62;37.48
52105;BME280;38103;42.776;23.112;2023-02-18T13:46:10;94431.34;;;13.61;37.11
52105;BME280;38103;42.776;23.112;2023-02-18T13:51:38;94424.81;;;13.35;37.30
52105;BME280;38103;42.776;23.112;2023-02-18T13:56:47;94404.06;;;13.02;38.21
52105;BME280;38103;42.776;23.112;2023-02-18T13:59:42;94416.25;;;13.15;38.29
52105;BME280;38103;42.776;23.112;2023-02-18T14:04:54;94412.69;;;13.10;37.90
52105;BME280;38103;42.776;23.112;2023-02-18T14:09:59;94427.84;;;13.26;38.72
52105;BME280;38103;42.776;23.112;2023-02-18T14:14:51;94420.28;;;13.35;38.65
52105;BME280;38103;42.776;23.112;2023-02-18T14:19:42;94413.84;;;13.31;38.83
52105;BME280;38103;42.776;23.112;2023-02-18T14:27:39;94418.34;;;13.30;38.65
52105;BME280;38103;42.776;23.112;2023-02-18T14:30:07;94418.81;;;13.27;39.22
52105;BME280;38103;42.776;23.112;2023-02-18T14:32:40;94417.63;;;13.18;38.92
52105;BME280;38103;42.776;23.112;2023-02-18T14:43:45;94413.34;;;13.17;39.46
52105;BME280;38103;42.776;23.112;2023-02-18T14:46:19;94406.81;;;13.07;39.16
52105;BME280;38103;42.776;23.112;2023-02-18T14:51:53;94405.13;;;13.01;39.30
52105;BME280;38103;42.776;23.112;2023-02-18T14:54:24;94405.25;;;12.94;39.52
52105;BME280;38103;42.776;23.112;2023-02-18T14:59:23;94392.72;;;12.90;39.39
52105;BME280;38103;42.776;23.112;2023-02-18T15:01:53;94389.31;;;12.77;39.49
52105;BME280;38103;42.776;23.112;2023-02-18T15:04:18;94397.03;;;12.79;39.77
52105;BME280;38103;42.776;23.112;2023-02-18T15:06:44;94406.16;;;12.71;39.96
52105;BME280;38103;42.776;23.112;2023-02-18T15:09:21;94395.44;;;12.66;40.03
52105;BME280;38103;42.776;23.112;2023-02-18T15:11:54;94406.56;;;12.62;40.07
52105;BME280;38103;42.776;23.112;2023-02-18T15:14:23;94398.72;;;12.56;40.60
52105;BME280;38103;42.776;23.112;2023-02-18T15:16:50;94401.63;;;12.54;40.84
52105;BME280;38103;42.776;23.112;2023-02-18T15:19:19;94404.63;;;12.46;40.94
52105;BME280;38103;42.776;23.112;2023-02-18T15:21:48;94391.47;;;12.51;40.62
52105;BME280;38103;42.776;23.112;2023-02-18T15:29:37;94395.44;;;12.36;41.18